sensor_id;sensor_type;location;lat;lon;timestamp;P1;durP1;ratioP1;P2;durP2;ratioP2
34200;SDS011;20469;55.638;37.670;2023-06-10T00:00:44;3.83;;;2.50;;
34200;SDS011;20469;55.638;37.670;2023-06-10T00:03:11;4.05;;;2.58;;
34200;SDS011;20469;55.638;37.670;2023-06-10T00:05:39;3.28;;;2.20;;
34200;SDS011;20469;55.638;37.670;2023-06-10T00:08:08;3.55;;;2.45;;
34200;SDS011;20469;55.638;37.670;2023-06-10T00:10:35;2.45;;;2.25;;
34200;SDS011;20469;55.638;37.670;2023-06-10T00:13:04;3.28;;;2.50;;
34200;SDS011;20469;55.638;37.670;2023-06-10T00:15:35;4.55;;;2.83;;
34200;SDS011;20469;55.638;37.670;2023-06-10T00:18:03;5.00;;;2.50;;
34200;SDS011;20469;55.638;37.670;2023-06-10T00:20:30;7.55;;;2.67;;
34200;SDS011;20469;55.638;37.670;2023-06-10T00:22:58;4.53;;;2.70;;
34200;SDS011;20469;55.638;37.670;2023-06-10T00:25:27;3.13;;;2.40;;
34200;SDS011;20469;55.638;37.670;2023-06-10T00:27:55;5.47;;;2.72;;
34200;SDS011;20469;55.638;37.670;2023-06-10T00:30:22;2.85;;;2.35;;
34200;SDS011;20469;55.638;37.670;2023-06-10T00:32:49;2.60;;;2.33;;
34200;SDS011;20469;55.638;37.670;2023-06-10T00:35:17;2.78;;;2.30;;
34200;SDS011;20469;55.638;37.670;2023-06-10T00:37:44;2.97;;;2.30;;
34200;SDS011;20469;55.638;37.670;2023-06-10T00:40:12;3.28;;;2.70;;
34200;SDS011;20469;55.638;37.670;2023-06-10T00:42:39;4.57;;;2.72;;
34200;SDS011;20469;55.638;37.670;2023-06-10T00:45:07;3.03;;;2.60;;
34200;SDS011;20469;55.638;37.670;2023-06-10T00:47:35;3.45;;;2.60;;
34200;SDS011;20469;55.638;37.670;2023-06-10T00:50:03;6.03;;;2.92;;
34200;SDS011;20469;55.638;37.670;2023-06-10T00:52:31;4.20;;;2.70;;
34200;SDS011;20469;55.638;37.670;2023-06-10T00:54:59;4.03;;;2.65;;
34200;SDS011;20469;55.638;37.670;2023-06-10T00:57:29;3.35;;;2.65;;
34200;SDS011;20469;55.638;37.670;2023-06-10T00:59:56;3.80;;;2.40;;
34200;SDS011;20469;55.638;37.670;2023-06-10T01:02:24;3.03;;;2.50;;
34200;SDS011;20469;55.638;37.670;2023-06-10T01:04:51;4.60;;;3.60;;
34200;SDS011;20469;55.638;37.670;2023-06-10T01:07:33;3.40;;;2.80;;
34200;SDS011;20469;55.638;37.670;2023-06-10T01:10:21;3.90;;;2.63;;
34200;SDS011;20469;55.638;37.670;2023-06-10T01:13:00;3.78;;;2.50;;
34200;SDS011;20469;55.638;37.670;2023-06-10T01:15:33;2.60;;;2.40;;
34200;SDS011;20469;55.638;37.670;2023-06-10T01:18:05;4.22;;;2.67;;
34200;SDS011;20469;55.638;37.670;2023-06-10T01:20:42;3.20;;;2.40;;
34200;SDS011;20469;55.638;37.670;2023-06-10T01:23:11;6.50;;;2.45;;
34200;SDS011;20469;55.638;37.670;2023-06-10T01:25:39;4.57;;;2.47;;
34200;SDS011;20469;55.638;37.670;2023-06-10T01:28:10;3.42;;;2.70;;
34200;SDS011;20469;55.638;37.670;2023-06-10T01:33:14;4.32;;;2.50;;
34200;SDS011;20469;55.638;37.670;2023-06-10T01:38:14;3.60;;;2.40;;
34200;SDS011;20469;55.638;37.670;2023-06-10T01:40:44;3.28;;;2.28;;
34200;SDS011;20469;55.638;37.670;2023-06-10T01:43:13;2.65;;;2.45;;
34200;SDS011;20469;55.638;37.670;2023-06-10T01:45:40;5.28;;;2.47;;
34200;SDS011;20469;55.638;37.670;2023-06-10T01:48:07;4.72;;;2.60;;
34200;SDS011;20469;55.638;37.670;2023-06-10T01:50:35;5.25;;;2.80;;
34200;SDS011;20469;55.638;37.670;2023-06-10T01:53:03;3.10;;;2.80;;
34200;SDS011;20469;55.638;37.670;2023-06-10T01:55:30;2.75;;;2.28;;
34200;SDS011;20469;55.638;37.670;2023-06-10T01:57:58;2.83;;;2.40;;
34200;SDS011;20469;55.638;37.670;2023-06-10T02:00:25;3.78;;;2.80;;
34200;SDS011;20469;55.638;37.670;2023-06-10T02:02:52;4.25;;;3.00;;
34200;SDS011;20469;55.638;37.670;2023-06-10T02:05:20;2.90;;;2.40;;
34200;SDS011;20469;55.638;37.670;2023-06-10T02:07:47;4.90;;;2.85;;
34200;SDS011;20469;55.638;37.670;2023-06-10T02:10:14;3.33;;;2.78;;
34200;SDS011;20469;55.638;37.670;2023-06-10T02:12:42;3.25;;;2.53;;
34200;SDS011;20469;55.638;37.670;2023-06-10T02:15:09;4.93;;;2.65;;
34200;SDS011;20469;55.638;37.670;2023-06-10T02:17:37;2.90;;;2.53;;
34200;SDS011;20469;55.638;37.670;2023-06-10T02:20:24;4.13;;;2.70;;
34200;SDS011;20469;55.638;37.670;2023-06-10T02:22:52;5.35;;;2.90;;
34200;SDS011;20469;55.638;37.670;2023-06-10T02:25:20;6.95;;;2.90;;
34200;SDS011;20469;55.638;37.670;2023-06-10T02:27:47;6.07;;;2.67;;
34200;SDS011;20469;55.638;37.670;2023-06-10T02:30:14;3.30;;;2.60;;
34200;SDS011;20469;55.638;37.670;2023-06-10T02:32:42;2.88;;;2.30;;
34200;SDS011;20469;55.638;37.670;2023-06-10T02:35:15;4.00;;;2.75;;
34200;SDS011;20469;55.638;37.670;2023-06-10T02:37:42;4.03;;;2.88;;
34200;SDS011;20469;55.638;37.670;2023-06-10T02:40:10;3.85;;;2.63;;
34200;SDS011;20469;55.638;37.670;2023-06-10T02:42:38;5.43;;;3.00;;
34200;SDS011;20469;55.638;37.670;2023-06-10T02:45:05;3.85;;;2.67;;
34200;SDS011;20469;55.638;37.670;2023-06-10T02:47:33;3.95;;;2.67;;
34200;SDS011;20469;55.638;37.670;2023-06-10T02:50:01;5.75;;;2.75;;
34200;SDS011;20469;55.638;37.670;2023-06-10T02:52:30;4.40;;;2.50;;
34200;SDS011;20469;55.638;37.670;2023-06-10T02:54:58;3.70;;;2.50;;
34200;SDS011;20469;55.638;37.670;2023-06-10T02:57:25;4.13;;;2.60;;
34200;SDS011;20469;55.638;37.670;2023-06-10T02:59:52;4.72;;;2.45;;
34200;SDS011;20469;55.638;37.670;2023-06-10T03:02:20;2.75;;;2.38;;
34200;SDS011;20469;55.638;37.670;2023-06-10T03:04:48;3.75;;;2.50;;
34200;SDS011;20469;55.638;37.670;2023-06-10T03:07:17;5.10;;;2.38;;
34200;SDS011;20469;55.638;37.670;2023-06-10T03:09:45;4.50;;;2.63;;
34200;SDS011;20469;55.638;37.670;2023-06-10T03:12:12;3.72;;;2.47;;
34200;SDS011;20469;55.638;37.670;2023-06-10T03:14:39;4.80;;;2.38;;
34200;SDS011;20469;55.638;37.670;2023-06-10T03:17:07;4.07;;;2.50;;
34200;SDS011;20469;55.638;37.670;2023-06-10T03:19:38;3.53;;;2.38;;
34200;SDS011;20469;55.638;37.670;2023-06-10T03:22:12;4.32;;;2.22;;
34200;SDS011;20469;55.638;37.670;2023-06-10T03:24:41;5.43;;;2.42;;
34200;SDS011;20469;55.638;37.670;2023-06-10T03:27:10;3.58;;;2.10;;
34200;SDS011;20469;55.638;37.670;2023-06-10T03:29:37;2.65;;;2.20;;
34200;SDS011;20469;55.638;37.670;2023-06-10T03:32:05;2.63;;;2.30;;
34200;SDS011;20469;55.638;37.670;2023-06-10T03:34:33;5.10;;;1.77;;
34200;SDS011;20469;55.638;37.670;2023-06-10T03:37:01;3.25;;;1.65;;
34200;SDS011;20469;55.638;37.670;2023-06-10T03:39:29;3.65;;;1.90;;
34200;SDS011;20469;55.638;37.670;2023-06-10T03:41:57;2.72;;;1.75;;
34200;SDS011;20469;55.638;37.670;2023-06-10T03:44:24;2.95;;;1.70;;
34200;SDS011;20469;55.638;37.670;2023-06-10T03:46:55;4.47;;;1.90;;
34200;SDS011;20469;55.638;37.670;2023-06-10T03:49:24;3.75;;;1.70;;
34200;SDS011;20469;55.638;37.670;2023-06-10T03:51:53;3.25;;;1.63;;
34200;SDS011;20469;55.638;37.670;2023-06-10T03:54:21;4.80;;;1.98;;
34200;SDS011;20469;55.638;37.670;2023-06-10T03:56:48;3.42;;;1.67;;
34200;SDS011;20469;55.638;37.670;2023-06-10T03:59:16;2.72;;;1.80;;
34200;SDS011;20469;55.638;37.670;2023-06-10T04:01:43;4.07;;;1.80;;
34200;SDS011;20469;55.638;37.670;2023-06-10T04:04:14;11.02;;;2.05;;
34200;SDS011;20469;55.638;37.670;2023-06-10T04:06:44;2.75;;;1.63;;
34200;SDS011;20469;55.638;37.670;2023-06-10T04:09:11;3.38;;;1.80;;
34200;SDS011;20469;55.638;37.670;2023-06-10T04:11:39;3.38;;;1.70;;
34200;SDS011;20469;55.638;37.670;2023-06-10T04:14:06;4.22;;;1.90;;
34200;SDS011;20469;55.638;37.670;2023-06-10T04:16:34;4.95;;;1.83;;
34200;SDS011;20469;55.638;37.670;2023-06-10T04:19:02;2.50;;;1.65;;
34200;SDS011;20469;55.638;37.670;2023-06-10T04:21:29;4.15;;;2.05;;
34200;SDS011;20469;55.638;37.670;2023-06-10T04:23:56;4.72;;;1.70;;
34200;SDS011;20469;55.638;37.670;2023-06-10T04:26:24;6.68;;;1.83;;
34200;SDS011;20469;55.638;37.670;2023-06-10T04:28:52;15.57;;;2.10;;
34200;SDS011;20469;55.638;37.670;2023-06-10T04:31:20;6.97;;;1.90;;
34200;SDS011;20469;55.638;37.670;2023-06-10T04:33:47;2.60;;;1.30;;
34200;SDS011;20469;55.638;37.670;2023-06-10T04:36:14;4.32;;;1.83;;
34200;SDS011;20469;55.638;37.670;2023-06-10T04:38:42;2.88;;;1.55;;
34200;SDS011;20469;55.638;37.670;2023-06-10T04:41:09;1.98;;;1.40;;
34200;SDS011;20469;55.638;37.670;2023-06-10T04:43:37;5.88;;;1.60;;
34200;SDS011;20469;55.638;37.670;2023-06-10T04:46:05;3.15;;;1.30;;
34200;SDS011;20469;55.638;37.670;2023-06-10T04:48:34;3.60;;;1.70;;
34200;SDS011;20469;55.638;37.670;2023-06-10T04:51:02;3.80;;;1.67;;
34200;SDS011;20469;55.638;37.670;2023-06-10T04:53:29;4.72;;;1.63;;
34200;SDS011;20469;55.638;37.670;2023-06-10T04:55:57;2.97;;;1.40;;
34200;SDS011;20469;55.638;37.670;2023-06-10T04:58:24;4.22;;;1.70;;
34200;SDS011;20469;55.638;37.670;2023-06-10T05:00:51;2.83;;;1.40;;
34200;SDS011;20469;55.638;37.670;2023-06-10T05:03:19;3.58;;;1.88;;
34200;SDS011;20469;55.638;37.670;2023-06-10T05:05:47;4.63;;;1.58;;
34200;SDS011;20469;55.638;37.670;2023-06-10T05:08:14;3.05;;;1.40;;
34200;SDS011;20469;55.638;37.670;2023-06-10T05:10:41;3.90;;;1.58;;
34200;SDS011;20469;55.638;37.670;2023-06-10T05:13:08;3.00;;;1.30;;
34200;SDS011;20469;55.638;37.670;2023-06-10T05:15:36;3.90;;;1.60;;
34200;SDS011;20469;55.638;37.670;2023-06-10T05:18:03;1.95;;;1.50;;
34200;SDS011;20469;55.638;37.670;2023-06-10T05:20:31;3.20;;;1.70;;
34200;SDS011;20469;55.638;37.670;2023-06-10T05:22:58;1.60;;;1.35;;
34200;SDS011;20469;55.638;37.670;2023-06-10T05:25:26;4.10;;;1.75;;
34200;SDS011;20469;55.638;37.670;2023-06-10T05:30:41;2.60;;;1.90;;
34200;SDS011;20469;55.638;37.670;2023-06-10T05:33:09;2.67;;;1.38;;
34200;SDS011;20469;55.638;37.670;2023-06-10T05:35:36;4.30;;;1.88;;
34200;SDS011;20469;55.638;37.670;2023-06-10T05:38:03;4.05;;;1.60;;
34200;SDS011;20469;55.638;37.670;2023-06-10T05:40:31;3.45;;;2.00;;
34200;SDS011;20469;55.638;37.670;2023-06-10T05:42:58;4.70;;;2.28;;
34200;SDS011;20469;55.638;37.670;2023-06-10T05:45:26;2.72;;;1.70;;
34200;SDS011;20469;55.638;37.670;2023-06-10T05:47:54;2.15;;;1.95;;
34200;SDS011;20469;55.638;37.670;2023-06-10T05:50:23;2.25;;;1.67;;
34200;SDS011;20469;55.638;37.670;2023-06-10T05:52:51;2.60;;;1.98;;
34200;SDS011;20469;55.638;37.670;2023-06-10T05:55:20;2.95;;;1.88;;
34200;SDS011;20469;55.638;37.670;2023-06-10T05:57:48;4.03;;;1.83;;
34200;SDS011;20469;55.638;37.670;2023-06-10T06:00:26;3.20;;;1.90;;
34200;SDS011;20469;55.638;37.670;2023-06-10T06:02:54;4.20;;;1.75;;
34200;SDS011;20469;55.638;37.670;2023-06-10T06:05:24;2.33;;;1.95;;
34200;SDS011;20469;55.638;37.670;2023-06-10T06:07:51;4.78;;;1.90;;
34200;SDS011;20469;55.638;37.670;2023-06-10T06:10:19;4.90;;;1.70;;
34200;SDS011;20469;55.638;37.670;2023-06-10T06:12:47;4.82;;;1.83;;
34200;SDS011;20469;55.638;37.670;2023-06-10T06:15:14;5.68;;;2.03;;
34200;SDS011;20469;55.638;37.670;2023-06-10T06:17:41;2.42;;;1.60;;
34200;SDS011;20469;55.638;37.670;2023-06-10T06:20:09;2.85;;;1.73;;
34200;SDS011;20469;55.638;37.670;2023-06-10T06:22:36;2.75;;;2.03;;
34200;SDS011;20469;55.638;37.670;2023-06-10T06:25:04;3.15;;;1.88;;
34200;SDS011;20469;55.638;37.670;2023-06-10T06:27:32;3.58;;;1.88;;
34200;SDS011;20469;55.638;37.670;2023-06-10T06:29:59;2.92;;;1.63;;
34200;SDS011;20469;55.638;37.670;2023-06-10T06:32:27;2.10;;;1.40;;
34200;SDS011;20469;55.638;37.670;2023-06-10T06:34:55;5.32;;;1.63;;
34200;SDS011;20469;55.638;37.670;2023-06-10T06:37:23;4.90;;;1.45;;
34200;SDS011;20469;55.638;37.670;2023-06-10T06:39:51;3.28;;;1.52;;
34200;SDS011;20469;55.638;37.670;2023-06-10T06:42:20;2.72;;;1.45;;
34200;SDS011;20469;55.638;37.670;2023-06-10T06:45:06;5.25;;;1.70;;
34200;SDS011;20469;55.638;37.670;2023-06-10T06:47:34;2.13;;;1.63;;
34200;SDS011;20469;55.638;37.670;2023-06-10T06:50:01;4.28;;;1.70;;
34200;SDS011;20469;55.638;37.670;2023-06-10T06:52:29;2.55;;;1.40;;
34200;SDS011;20469;55.638;37.670;2023-06-10T06:54:56;1.95;;;1.27;;
34200;SDS011;20469;55.638;37.670;2023-06-10T06:57:23;5.38;;;1.50;;
34200;SDS011;20469;55.638;37.670;2023-06-10T06:59:51;1.88;;;1.33;;
34200;SDS011;20469;55.638;37.670;2023-06-10T07:02:18;2.47;;;1.45;;
34200;SDS011;20469;55.638;37.670;2023-06-10T07:07:33;3.85;;;1.50;;
34200;SDS011;20469;55.638;37.670;2023-06-10T07:10:01;4.57;;;1.67;;
34200;SDS011;20469;55.638;37.670;2023-06-10T07:12:30;4.20;;;1.50;;
34200;SDS011;20469;55.638;37.670;2023-06-10T07:14:57;1.50;;;1.25;;
34200;SDS011;20469;55.638;37.670;2023-06-10T07:17:25;3.47;;;1.60;;
34200;SDS011;20469;55.638;37.670;2023-06-10T07:19:53;3.88;;;1.33;;
34200;SDS011;20469;55.638;37.670;2023-06-10T07:22:23;4.30;;;1.20;;
34200;SDS011;20469;55.638;37.670;2023-06-10T07:24:51;2.63;;;1.25;;
34200;SDS011;20469;55.638;37.670;2023-06-10T07:27:19;2.45;;;1.40;;
34200;SDS011;20469;55.638;37.670;2023-06-10T07:29:46;1.95;;;1.27;;
34200;SDS011;20469;55.638;37.670;2023-06-10T07:32:13;2.45;;;1.48;;
34200;SDS011;20469;55.638;37.670;2023-06-10T07:34:44;3.08;;;1.23;;
34200;SDS011;20469;55.638;37.670;2023-06-10T07:37:12;2.10;;;1.10;;
34200;SDS011;20469;55.638;37.670;2023-06-10T07:39:39;2.10;;;1.13;;
34200;SDS011;20469;55.638;37.670;2023-06-10T07:42:07;1.80;;;1.20;;
34200;SDS011;20469;55.638;37.670;2023-06-10T07:44:34;2.42;;;1.30;;
34200;SDS011;20469;55.638;37.670;2023-06-10T07:47:01;5.40;;;1.45;;
34200;SDS011;20469;55.638;37.670;2023-06-10T07:49:29;2.72;;;1.10;;
34200;SDS011;20469;55.638;37.670;2023-06-10T07:51:59;2.30;;;1.10;;
34200;SDS011;20469;55.638;37.670;2023-06-10T07:54:27;3.45;;;1.27;;
34200;SDS011;20469;55.638;37.670;2023-06-10T07:56:55;3.15;;;1.10;;
34200;SDS011;20469;55.638;37.670;2023-06-10T07:59:23;1.90;;;1.30;;
34200;SDS011;20469;55.638;37.670;2023-06-10T08:01:52;2.25;;;1.10;;
34200;SDS011;20469;55.638;37.670;2023-06-10T08:04:20;4.93;;;1.15;;
34200;SDS011;20469;55.638;37.670;2023-06-10T08:06:48;1.75;;;1.10;;
34200;SDS011;20469;55.638;37.670;2023-06-10T08:09:15;3.90;;;1.20;;
34200;SDS011;20469;55.638;37.670;2023-06-10T08:11:43;6.20;;;1.45;;
34200;SDS011;20469;55.638;37.670;2023-06-10T08:14:10;2.22;;;1.13;;
34200;SDS011;20469;55.638;37.670;2023-06-10T08:16:37;3.15;;;1.20;;
34200;SDS011;20469;55.638;37.670;2023-06-10T08:19:05;2.38;;;1.27;;
34200;SDS011;20469;55.638;37.670;2023-06-10T08:21:32;2.60;;;0.93;;
34200;SDS011;20469;55.638;37.670;2023-06-10T08:24:00;4.70;;;0.95;;
34200;SDS011;20469;55.638;37.670;2023-06-10T08:26:27;1.35;;;0.80;;
34200;SDS011;20469;55.638;37.670;2023-06-10T08:28:55;3.70;;;1.00;;
34200;SDS011;20469;55.638;37.670;2023-06-10T08:31:22;2.03;;;0.98;;
34200;SDS011;20469;55.638;37.670;2023-06-10T08:33:49;4.43;;;0.90;;
34200;SDS011;20469;55.638;37.670;2023-06-10T08:36:17;3.45;;;1.35;;
34200;SDS011;20469;55.638;37.670;2023-06-10T08:38:44;3.78;;;0.75;;
34200;SDS011;20469;55.638;37.670;2023-06-10T08:41:12;3.42;;;0.95;;
34200;SDS011;20469;55.638;37.670;2023-06-10T08:44:17;2.08;;;0.85;;
34200;SDS011;20469;55.638;37.670;2023-06-10T08:46:45;14.88;;;1.52;;
34200;SDS011;20469;55.638;37.670;2023-06-10T08:49:15;13.50;;;1.15;;
34200;SDS011;20469;55.638;37.670;2023-06-10T08:51:49;1.35;;;1.10;;
34200;SDS011;20469;55.638;37.670;2023-06-10T08:54:20;2.47;;;0.90;;
34200;SDS011;20469;55.638;37.670;2023-06-10T08:56:51;3.90;;;1.20;;
34200;SDS011;20469;55.638;37.670;2023-06-10T08:59:21;4.80;;;1.30;;
34200;SDS011;20469;55.638;37.670;2023-06-10T09:01:50;1.52;;;1.10;;
34200;SDS011;20469;55.638;37.670;2023-06-10T09:04:18;2.85;;;1.10;;
34200;SDS011;20469;55.638;37.670;2023-06-10T09:06:47;1.85;;;0.93;;
34200;SDS011;20469;55.638;37.670;2023-06-10T09:09:16;2.67;;;0.85;;
34200;SDS011;20469;55.638;37.670;2023-06-10T09:11:46;3.25;;;0.90;;
34200;SDS011;20469;55.638;37.670;2023-06-10T09:14:14;3.97;;;1.20;;
34200;SDS011;20469;55.638;37.670;2023-06-10T09:16:43;2.13;;;1.17;;
34200;SDS011;20469;55.638;37.670;2023-06-10T09:19:12;3.22;;;0.90;;
34200;SDS011;20469;55.638;37.670;2023-06-10T09:21:42;2.00;;;0.90;;
34200;SDS011;20469;55.638;37.670;2023-06-10T09:24:09;3.53;;;1.05;;
34200;SDS011;20469;55.638;37.670;2023-06-10T09:26:37;4.75;;;1.23;;
34200;SDS011;20469;55.638;37.670;2023-06-10T09:29:05;2.92;;;1.08;;
34200;SDS011;20469;55.638;37.670;2023-06-10T09:31:35;1.40;;;1.10;;
34200;SDS011;20469;55.638;37.670;2023-06-10T09:34:12;2.92;;;1.13;;
34200;SDS011;20469;55.638;37.670;2023-06-10T09:36:42;2.15;;;0.93;;
34200;SDS011;20469;55.638;37.670;2023-06-10T09:39:16;2.47;;;0.90;;
34200;SDS011;20469;55.638;37.670;2023-06-10T09:41:45;1.83;;;1.33;;
34200;SDS011;20469;55.638;37.670;2023-06-10T09:44:14;2.33;;;1.10;;
34200;SDS011;20469;55.638;37.670;2023-06-10T09:46:45;1.40;;;0.95;;
34200;SDS011;20469;55.638;37.670;2023-06-10T09:49:13;2.63;;;0.90;;
34200;SDS011;20469;55.638;37.670;2023-06-10T09:51:53;1.38;;;0.80;;
34200;SDS011;20469;55.638;37.670;2023-06-10T09:54:21;2.55;;;1.00;;
34200;SDS011;20469;55.638;37.670;2023-06-10T09:56:50;3.35;;;1.00;;
34200;SDS011;20469;55.638;37.670;2023-06-10T09:59:28;4.15;;;0.98;;
34200;SDS011;20469;55.638;37.670;2023-06-10T10:01:58;1.17;;;0.80;;
34200;SDS011;20469;55.638;37.670;2023-06-10T10:04:27;1.52;;;0.88;;
34200;SDS011;20469;55.638;37.670;2023-06-10T10:06:55;4.75;;;1.30;;
34200;SDS011;20469;55.638;37.670;2023-06-10T10:09:22;3.60;;;1.05;;
34200;SDS011;20469;55.638;37.670;2023-06-10T10:11:50;3.75;;;1.20;;
34200;SDS011;20469;55.638;37.670;2023-06-10T10:14:20;1.30;;;1.13;;
34200;SDS011;20469;55.638;37.670;2023-06-10T10:16:48;3.67;;;1.00;;
34200;SDS011;20469;55.638;37.670;2023-06-10T10:19:20;2.67;;;1.10;;
34200;SDS011;20469;55.638;37.670;2023-06-10T10:21:53;3.47;;;1.23;;
34200;SDS011;20469;55.638;37.670;2023-06-10T10:24:31;5.27;;;1.27;;
34200;SDS011;20469;55.638;37.670;2023-06-10T10:27:07;1.70;;;1.15;;
34200;SDS011;20469;55.638;37.670;2023-06-10T10:29:45;1.02;;;0.90;;
34200;SDS011;20469;55.638;37.670;2023-06-10T10:32:15;3.53;;;1.15;;
34200;SDS011;20469;55.638;37.670;2023-06-10T10:34:49;5.47;;;1.33;;
34200;SDS011;20469;55.638;37.670;2023-06-10T10:37:24;4.57;;;1.02;;
34200;SDS011;20469;55.638;37.670;2023-06-10T10:39:53;4.72;;;1.10;;
34200;SDS011;20469;55.638;37.670;2023-06-10T10:42:21;2.17;;;1.10;;
34200;SDS011;20469;55.638;37.670;2023-06-10T10:44:49;4.15;;;1.30;;
34200;SDS011;20469;55.638;37.670;2023-06-10T10:47:18;3.85;;;1.10;;
34200;SDS011;20469;55.638;37.670;2023-06-10T10:49:48;3.00;;;1.00;;
34200;SDS011;20469;55.638;37.670;2023-06-10T10:52:21;2.47;;;1.02;;
34200;SDS011;20469;55.638;37.670;2023-06-10T10:54:48;2.78;;;0.82;;
34200;SDS011;20469;55.638;37.670;2023-06-10T10:57:20;5.18;;;1.02;;
34200;SDS011;20469;55.638;37.670;2023-06-10T11:02:19;1.50;;;0.90;;
34200;SDS011;20469;55.638;37.670;2023-06-10T11:05:13;3.00;;;0.90;;
34200;SDS011;20469;55.638;37.670;2023-06-10T11:07:52;1.48;;;1.15;;
34200;SDS011;20469;55.638;37.670;2023-06-10T11:10:31;2.53;;;1.00;;
34200;SDS011;20469;55.638;37.670;2023-06-10T11:13:02;3.45;;;1.00;;
34200;SDS011;20469;55.638;37.670;2023-06-10T11:15:37;2.55;;;1.08;;
34200;SDS011;20469;55.638;37.670;2023-06-10T11:31:21;2.00;;;1.10;;
34200;SDS011;20469;55.638;37.670;2023-06-10T11:33:56;1.17;;;1.02;;
34200;SDS011;20469;55.638;37.670;2023-06-10T11:36:25;1.33;;;1.00;;
34200;SDS011;20469;55.638;37.670;2023-06-10T11:38:57;4.50;;;1.20;;
34200;SDS011;20469;55.638;37.670;2023-06-10T11:41:26;1.83;;;1.10;;
34200;SDS011;20469;55.638;37.670;2023-06-10T11:43:57;4.60;;;1.45;;
34200;SDS011;20469;55.638;37.670;2023-06-10T11:48:56;3.40;;;1.20;;
34200;SDS011;20469;55.638;37.670;2023-06-10T11:51:25;2.65;;;1.00;;
34200;SDS011;20469;55.638;37.670;2023-06-10T11:53:54;2.47;;;1.10;;
34200;SDS011;20469;55.638;37.670;2023-06-10T11:56:23;1.83;;;1.00;;
34200;SDS011;20469;55.638;37.670;2023-06-10T11:58:55;4.07;;;1.30;;
34200;SDS011;20469;55.638;37.670;2023-06-10T12:01:37;2.10;;;1.27;;
34200;SDS011;20469;55.638;37.670;2023-06-10T12:04:13;1.75;;;1.30;;
34200;SDS011;20469;55.638;37.670;2023-06-10T12:06:52;2.67;;;1.02;;
34200;SDS011;20469;55.638;37.670;2023-06-10T12:09:24;4.28;;;1.33;;
34200;SDS011;20469;55.638;37.670;2023-06-10T12:12:01;1.98;;;1.17;;
34200;SDS011;20469;55.638;37.670;2023-06-10T12:19:59;4.47;;;1.17;;
34200;SDS011;20469;55.638;37.670;2023-06-10T12:22:38;1.90;;;1.10;;
34200;SDS011;20469;55.638;37.670;2023-06-10T12:25:07;4.03;;;1.20;;
34200;SDS011;20469;55.638;37.670;2023-06-10T12:27:37;4.15;;;1.10;;
34200;SDS011;20469;55.638;37.670;2023-06-10T12:30:05;2.22;;;1.10;;
34200;SDS011;20469;55.638;37.670;2023-06-10T12:32:39;5.20;;;1.10;;
34200;SDS011;20469;55.638;37.670;2023-06-10T12:35:08;2.13;;;1.15;;
34200;SDS011;20469;55.638;37.670;2023-06-10T12:37:38;2.08;;;1.15;;
34200;SDS011;20469;55.638;37.670;2023-06-10T12:40:09;1.52;;;0.93;;
34200;SDS011;20469;55.638;37.670;2023-06-10T12:42:38;1.92;;;1.00;;
34200;SDS011;20469;55.638;37.670;2023-06-10T12:45:05;2.50;;;1.00;;
34200;SDS011;20469;55.638;37.670;2023-06-10T12:47:37;2.55;;;1.00;;
34200;SDS011;20469;55.638;37.670;2023-06-10T12:50:05;3.42;;;1.05;;
34200;SDS011;20469;55.638;37.670;2023-06-10T12:52:34;2.75;;;0.93;;
34200;SDS011;20469;55.638;37.670;2023-06-10T12:55:01;2.35;;;1.10;;
34200;SDS011;20469;55.638;37.670;2023-06-10T12:57:31;3.53;;;1.27;;
34200;SDS011;20469;55.638;37.670;2023-06-10T12:59:58;2.80;;;1.92;;
34200;SDS011;20469;55.638;37.670;2023-06-10T13:02:33;3.88;;;1.10;;
34200;SDS011;20469;55.638;37.670;2023-06-10T13:05:01;2.53;;;1.40;;
34200;SDS011;20469;55.638;37.670;2023-06-10T13:07:31;2.55;;;1.00;;
34200;SDS011;20469;55.638;37.670;2023-06-10T13:09:58;3.13;;;1.10;;
34200;SDS011;20469;55.638;37.670;2023-06-10T13:12:26;1.98;;;1.20;;
34200;SDS011;20469;55.638;37.670;2023-06-10T13:15:12;3.13;;;1.20;;
34200;SDS011;20469;55.638;37.670;2023-06-10T13:17:42;3.92;;;1.40;;
34200;SDS011;20469;55.638;37.670;2023-06-10T13:20:10;2.35;;;1.35;;
34200;SDS011;20469;55.638;37.670;2023-06-10T13:22:38;3.92;;;1.30;;
34200;SDS011;20469;55.638;37.670;2023-06-10T13:25:05;3.25;;;1.35;;
34200;SDS011;20469;55.638;37.670;2023-06-10T13:27:36;5.15;;;1.50;;
34200;SDS011;20469;55.638;37.670;2023-06-10T13:30:09;2.03;;;1.25;;
34200;SDS011;20469;55.638;37.670;2023-06-10T13:32:38;3.63;;;3.15;;
34200;SDS011;20469;55.638;37.670;2023-06-10T13:35:06;2.35;;;1.17;;
34200;SDS011;20469;55.638;37.670;2023-06-10T13:37:35;3.58;;;1.30;;
34200;SDS011;20469;55.638;37.670;2023-06-10T13:40:03;1.63;;;1.10;;
34200;SDS011;20469;55.638;37.670;2023-06-10T13:42:31;1.90;;;1.30;;
34200;SDS011;20469;55.638;37.670;2023-06-10T13:44:59;3.70;;;1.30;;
34200;SDS011;20469;55.638;37.670;2023-06-10T13:47:27;2.00;;;1.38;;
34200;SDS011;20469;55.638;37.670;2023-06-10T13:49:54;2.60;;;1.08;;
34200;SDS011;20469;55.638;37.670;2023-06-10T13:52:22;7.70;;;1.10;;
34200;SDS011;20469;55.638;37.670;2023-06-10T13:54:49;2.75;;;1.00;;
34200;SDS011;20469;55.638;37.670;2023-06-10T13:57:17;2.88;;;1.30;;
34200;SDS011;20469;55.638;37.670;2023-06-10T13:59:44;4.63;;;1.40;;
34200;SDS011;20469;55.638;37.670;2023-06-10T14:02:11;5.18;;;1.52;;
34200;SDS011;20469;55.638;37.670;2023-06-10T14:04:39;3.30;;;1.20;;
34200;SDS011;20469;55.638;37.670;2023-06-10T14:07:06;5.80;;;1.33;;
34200;SDS011;20469;55.638;37.670;2023-06-10T14:09:34;4.07;;;1.20;;
34200;SDS011;20469;55.638;37.670;2023-06-10T14:12:01;3.83;;;1.35;;
34200;SDS011;20469;55.638;37.670;2023-06-10T14:14:30;3.92;;;1.20;;
34200;SDS011;20469;55.638;37.670;2023-06-10T14:16:59;4.38;;;1.33;;
34200;SDS011;20469;55.638;37.670;2023-06-10T14:19:27;2.42;;;1.20;;
34200;SDS011;20469;55.638;37.670;2023-06-10T14:21:54;6.60;;;1.23;;
34200;SDS011;20469;55.638;37.670;2023-06-10T14:24:22;5.18;;;1.30;;
34200;SDS011;20469;55.638;37.670;2023-06-10T14:26:49;3.42;;;1.10;;
34200;SDS011;20469;55.638;37.670;2023-06-10T14:29:17;2.13;;;1.00;;
34200;SDS011;20469;55.638;37.670;2023-06-10T14:31:46;4.05;;;1.30;;
34200;SDS011;20469;55.638;37.670;2023-06-10T14:34:13;3.00;;;1.60;;
34200;SDS011;20469;55.638;37.670;2023-06-10T14:36:41;10.95;;;1.48;;
34200;SDS011;20469;55.638;37.670;2023-06-10T14:39:08;3.53;;;1.33;;
34200;SDS011;20469;55.638;37.670;2023-06-10T14:41:35;3.60;;;1.25;;
34200;SDS011;20469;55.638;37.670;2023-06-10T14:44:03;1.88;;;1.05;;
34200;SDS011;20469;55.638;37.670;2023-06-10T14:46:30;3.28;;;1.30;;
34200;SDS011;20469;55.638;37.670;2023-06-10T14:48:58;1.90;;;1.25;;
34200;SDS011;20469;55.638;37.670;2023-06-10T14:51:25;3.25;;;1.55;;
34200;SDS011;20469;55.638;37.670;2023-06-10T14:53:53;4.00;;;1.35;;
34200;SDS011;20469;55.638;37.670;2023-06-10T14:56:20;4.03;;;1.27;;
34200;SDS011;20469;55.638;37.670;2023-06-10T14:58:47;3.83;;;1.30;;
34200;SDS011;20469;55.638;37.670;2023-06-10T15:01:14;3.20;;;1.40;;
34200;SDS011;20469;55.638;37.670;2023-06-10T15:03:42;5.25;;;1.10;;
34200;SDS011;20469;55.638;37.670;2023-06-10T15:06:09;2.20;;;1.05;;
34200;SDS011;20469;55.638;37.670;2023-06-10T15:08:36;5.35;;;1.30;;
34200;SDS011;20469;55.638;37.670;2023-06-10T15:11:04;1.40;;;1.25;;
34200;SDS011;20469;55.638;37.670;2023-06-10T15:13:31;4.47;;;1.40;;
34200;SDS011;20469;55.638;37.670;2023-06-10T15:15:58;6.93;;;1.60;;
34200;SDS011;20469;55.638;37.670;2023-06-10T15:18:29;2.83;;;1.70;;